Time;durP1;ratioP1;P1;durP2;ratioP2;P2;SDS_P1;SDS_P2;PMS_P1;PMS_P2;Temp;Humidity;BMP_temperature;BMP_pressure;BME280_temperature;BME280_humidity;BME280_pressure;Samples;Min_cycle;Max_cycle;Signal;HPM_P1;HPM_P2
2023/06/25 00:01:15;;;;;;;8.93;5.28;;;;;;;;;;4987291;28;20113;-61
2023/06/25 00:03:40;;;;;;;7.03;5.10;;;;;;;;;;4991077;28;20046;-59
2023/06/25 00:06:06;;;;;;;6.95;4.95;;;;;;;;;;4986832;28;20603;-60
2023/06/25 00:08:31;;;;;;;7.50;5.15;;;;;;;;;;4991013;28;20061;-60
2023/06/25 00:10:56;;;;;;;7.95;5.00;;;;;;;;;;4994460;28;20061;-63
2023/06/25 00:13:22;;;;;;;7.60;5.25;;;;;;;;;;4993995;28;20069;-60
2023/06/25 00:15:47;;;;;;;9.32;5.38;;;;;;;;;;4995031;28;20081;-60
2023/06/25 00:18:13;;;;;;;7.40;5.10;;;;;;;;;;4990080;28;20023;-59
2023/06/25 00:20:38;;;;;;;7.80;5.10;;;;;;;;;;4995419;28;20463;-59
2023/06/25 00:23:05;;;;;;;8.60;5.85;;;;;;;;;;4993702;28;20038;-59
2023/06/25 00:25:30;;;;;;;8.55;5.57;;;;;;;;;;4992991;28;20030;-58
2023/06/25 00:27:57;;;;;;;10.27;5.60;;;;;;;;;;4992798;28;20053;-61
2023/06/25 00:30:23;;;;;;;11.48;5.97;;;;;;;;;;4994655;28;20030;-62
2023/06/25 00:32:54;;;;;;;16.80;5.63;;;;;;;;;;4994920;28;20060;-58
2023/06/25 00:35:19;;;;;;;;;;;;;;;;;;4992073;28;20034;-58
2023/06/25 00:37:45;;;;;;;8.35;5.80;;;;;;;;;;4992225;28;20078;-61
2023/06/25 00:40:11;;;;;;;8.75;6.10;;;;;;;;;;4993980;28;20110;-60
2023/06/25 00:42:44;;;;;;;8.90;6.30;;;;;;;;;;4991379;28;20046;-60
2023/06/25 00:45:11;;;;;;;9.15;6.22;;;;;;;;;;4992677;28;20049;-60
2023/06/25 00:47:38;;;;;;;9.55;6.40;;;;;;;;;;4994002;28;20368;-60
2023/06/25 00:50:04;;;;;;;9.23;5.93;;;;;;;;;;4975501;28;20429;-60
2023/06/25 00:52:30;;;;;;;10.63;6.32;;;;;;;;;;4988083;28;20475;-61
2023/06/25 00:54:55;;;;;;;7.88;6.07;;;;;;;;;;4992335;28;20034;-59
2023/06/25 00:57:21;;;;;;;11.27;6.43;;;;;;;;;;4993713;28;20044;-60
2023/06/25 00:59:48;;;;;;;8.88;6.53;;;;;;;;;;4989921;28;20041;-60
2023/06/25 01:02:16;;;;;;;9.27;6.28;;;;;;;;;;4992289;28;20462;-60
2023/06/25 01:05:02;;;;;;;8.95;5.93;;;;;;;;;;4993806;28;20033;-60
2023/06/25 01:07:28;;;;;;;10.85;6.57;;;;;;;;;;4991385;28;20039;-60
2023/06/25 01:09:54;;;;;;;8.32;5.95;;;;;;;;;;4990345;28;20390;-60
2023/06/25 01:12:21;;;;;;;8.90;5.68;;;;;;;;;;4988220;28;20165;-59
2023/06/25 01:14:49;;;;;;;9.70;6.22;;;;;;;;;;4977555;28;20075;-60
2023/06/25 01:17:15;;;;;;;10.75;6.20;;;;;;;;;;4993251;28;20034;-61
2023/06/25 01:19:41;;;;;;;8.93;6.03;;;;;;;;;;4991151;28;20047;-59
2023/06/25 01:22:07;;;;;;;11.10;6.00;;;;;;;;;;4992538;28;20034;-60
2023/06/25 01:24:34;;;;;;;9.50;6.32;;;;;;;;;;4992075;28;20042;-60
2023/06/25 01:27:00;;;;;;;9.52;6.30;;;;;;;;;;4993581;28;20038;-62
2023/06/25 01:29:28;;;;;;;9.63;5.88;;;;;;;;;;4992217;28;20040;-60
2023/06/25 01:31:54;;;;;;;8.13;5.97;;;;;;;;;;4992570;28;20094;-60
2023/06/25 01:34:20;;;;;;;8.70;6.07;;;;;;;;;;4991287;28;20038;-61
2023/06/25 01:36:49;;;;;;;10.80;6.40;;;;;;;;;;4994316;28;20069;-60
2023/06/25 01:39:16;;;;;;;8.45;6.00;;;;;;;;;;4990635;28;20034;-61
2023/06/25 01:41:42;;;;;;;9.68;6.22;;;;;;;;;;4991626;28;20101;-62
2023/06/25 01:44:11;;;;;;;10.43;6.22;;;;;;;;;;4991676;28;20042;-60
2023/06/25 01:46:36;;;;;;;7.93;6.22;;;;;;;;;;4993230;28;20030;-60
2023/06/25 01:49:02;;;;;;;10.05;6.30;;;;;;;;;;4991021;28;20037;-63
2023/06/25 01:51:27;;;;;;;9.02;6.45;;;;;;;;;;4989945;28;20096;-60
2023/06/25 01:53:53;;;;;;;11.90;6.68;;;;;;;;;;4992322;28;20030;-59
2023/06/25 01:56:18;;;;;;;9.23;6.15;;;;;;;;;;5003512;28;20045;-60
2023/06/25 01:58:44;;;;;;;10.45;6.90;;;;;;;;;;4992862;28;20386;-59
2023/06/25 02:01:09;;;;;;;11.25;7.10;;;;;;;;;;4992390;28;20038;-60
2023/06/25 02:03:34;;;;;;;11.10;7.32;;;;;;;;;;4993093;28;20061;-59
2023/06/25 02:06:00;;;;;;;9.75;7.50;;;;;;;;;;4992143;28;20030;-59
2023/06/25 02:08:25;;;;;;;13.00;7.90;;;;;;;;;;4990486;28;20078;-61
2023/06/25 02:10:50;;;;;;;10.90;7.47;;;;;;;;;;4992788;28;20109;-59
2023/06/25 02:13:16;;;;;;;10.90;7.55;;;;;;;;;;4990408;28;20035;-60
2023/06/25 02:15:42;;;;;;;9.63;7.35;;;;;;;;;;4991466;28;20550;-59
2023/06/25 02:18:07;;;;;;;10.23;7.28;;;;;;;;;;4999489;28;20142;-60
2023/06/25 02:20:32;;;;;;;10.63;7.68;;;;;;;;;;4992799;28;20109;-59
2023/06/25 02:22:58;;;;;;;12.25;7.97;;;;;;;;;;4992295;28;20481;-59
2023/06/25 02:25:23;;;;;;;9.45;7.22;;;;;;;;;;4990735;28;20030;-60
2023/06/25 02:27:49;;;;;;;10.23;7.65;;;;;;;;;;4988104;28;20085;-61
2023/06/25 02:30:14;;;;;;;9.80;7.20;;;;;;;;;;4989197;28;20034;-60
2023/06/25 02:32:39;;;;;;;9.77;7.15;;;;;;;;;;4990673;28;20042;-59
2023/06/25 02:35:05;;;;;;;10.00;7.32;;;;;;;;;;4991331;28;20022;-62
2023/06/25 02:37:30;;;;;;;9.82;7.30;;;;;;;;;;4992888;28;20415;-59
2023/06/25 02:39:56;;;;;;;10.13;7.57;;;;;;;;;;4992891;28;20038;-59
2023/06/25 02:42:21;;;;;;;11.38;8.10;;;;;;;;;;4989716;28;20058;-59
2023/06/25 02:44:46;;;;;;;11.38;8.20;;;;;;;;;;4992528;28;20054;-59
2023/06/25 02:47:12;;;;;;;11.45;8.70;;;;;;;;;;4991876;28;20383;-59
2023/06/25 02:49:37;;;;;;;11.88;8.70;;;;;;;;;;4991462;28;20030;-59
2023/06/25 02:52:03;;;;;;;13.77;8.88;;;;;;;;;;4989683;28;20030;-59
2023/06/25 02:54:28;;;;;;;12.55;8.80;;;;;;;;;;5004220;28;20575;-59
2023/06/25 02:56:56;;;;;;;13.02;9.05;;;;;;;;;;4994758;28;20027;-60
2023/06/25 02:59:21;;;;;;;12.95;9.70;;;;;;;;;;4990338;28;20113;-59
2023/06/25 03:01:46;;;;;;;15.00;9.38;;;;;;;;;;4990175;28;20109;-59
2023/06/25 03:04:12;;;;;;;13.38;9.20;;;;;;;;;;4988656;28;20107;-59
2023/06/25 03:06:37;;;;;;;11.27;8.80;;;;;;;;;;4989812;28;20080;-59
2023/06/25 03:09:03;;;;;;;11.88;9.18;;;;;;;;;;4991591;28;20030;-59
2023/06/25 03:11:28;;;;;;;15.63;8.95;;;;;;;;;;4987818;28;20065;-60
2023/06/25 03:13:54;;;;;;;13.05;9.40;;;;;;;;;;4990689;28;20034;-58
2023/06/25 03:16:19;;;;;;;14.02;9.95;;;;;;;;;;4990480;28;20088;-59
2023/06/25 03:18:44;;;;;;;13.00;9.20;;;;;;;;;;4990524;28;20069;-60
2023/06/25 03:21:10;;;;;;;13.63;9.18;;;;;;;;;;4986625;28;20038;-63
2023/06/25 03:23:35;;;;;;;14.60;9.68;;;;;;;;;;4990813;28;20041;-59
2023/06/25 03:26:01;;;;;;;13.32;8.95;;;;;;;;;;4987559;28;20046;-59
2023/06/25 03:28:26;;;;;;;15.48;9.35;;;;;;;;;;4994027;28;20776;-59
2023/06/25 03:30:52;;;;;;;11.70;9.00;;;;;;;;;;4990222;28;20034;-59
2023/06/25 03:33:17;;;;;;;13.07;9.73;;;;;;;;;;4982953;28;20030;-59
2023/06/25 03:35:42;;;;;;;12.05;8.63;;;;;;;;;;4991372;28;20034;-59
2023/06/25 03:38:08;;;;;;;13.98;9.18;;;;;;;;;;4985943;28;20052;-62
2023/06/25 03:40:33;;;;;;;12.00;9.18;;;;;;;;;;4990231;28;20026;-59
2023/06/25 03:42:58;;;;;;;13.65;9.30;;;;;;;;;;4989950;28;20447;-59
2023/06/25 03:45:24;;;;;;;13.05;9.00;;;;;;;;;;4991082;28;20030;-62
2023/06/25 03:47:49;;;;;;;12.18;9.10;;;;;;;;;;4990584;28;20038;-59
2023/06/25 03:50:14;;;;;;;11.55;9.13;;;;;;;;;;4988648;28;20402;-59
2023/06/25 03:52:40;;;;;;;15.20;9.68;;;;;;;;;;4990833;28;20100;-59
2023/06/25 03:55:05;;;;;;;13.85;9.32;;;;;;;;;;4989615;28;20038;-59
2023/06/25 03:57:31;;;;;;;14.98;9.50;;;;;;;;;;4989685;28;20034;-59
2023/06/25 03:59:56;;;;;;;14.38;9.82;;;;;;;;;;4990850;28;20026;-59
2023/06/25 04:02:22;;;;;;;12.15;9.18;;;;;;;;;;4989315;28;20116;-59
2023/06/25 04:04:47;;;;;;;12.68;9.00;;;;;;;;;;4988270;28;20421;-59
2023/06/25 04:07:12;;;;;;;12.48;9.35;;;;;;;;;;4989077;28;20038;-62
2023/06/25 04:09:38;;;;;;;12.80;9.07;;;;;;;;;;4991206;28;20434;-59
2023/06/25 04:12:03;;;;;;;11.73;8.63;;;;;;;;;;4990877;28;20037;-60
2023/06/25 04:14:29;;;;;;;11.85;8.75;;;;;;;;;;4989265;28;20088;-59
2023/06/25 04:16:54;;;;;;;12.52;9.07;;;;;;;;;;4988402;28;20475;-59
2023/06/25 04:19:19;;;;;;;11.88;8.50;;;;;;;;;;4989955;28;20065;-59
2023/06/25 04:21:45;;;;;;;10.63;8.15;;;;;;;;;;4987202;28;20033;-59
2023/06/25 04:24:10;;;;;;;16.17;8.48;;;;;;;;;;4986888;28;20390;-62
2023/06/25 04:26:35;;;;;;;11.70;8.68;;;;;;;;;;4987011;28;20104;-59
2023/06/25 04:29:01;;;;;;;12.60;8.60;;;;;;;;;;4990036;28;20364;-61
2023/06/25 04:31:26;;;;;;;11.35;8.30;;;;;;;;;;4991059;28;20038;-62
2023/06/25 04:33:52;;;;;;;11.20;8.63;;;;;;;;;;4990152;28;20042;-62
2023/06/25 04:36:19;;;;;;;11.80;8.50;;;;;;;;;;4991475;28;20060;-59
2023/06/25 04:38:45;;;;;;;14.02;8.57;;;;;;;;;;4992024;28;20097;-60
2023/06/25 04:41:10;;;;;;;11.27;8.27;;;;;;;;;;4992278;28;20137;-61
2023/06/25 04:43:36;;;;;;;13.00;8.65;;;;;;;;;;4991287;28;20378;-62
2023/06/25 04:46:01;;;;;;;12.43;8.65;;;;;;;;;;4991864;28;20054;-61
2023/06/25 04:48:26;;;;;;;10.00;8.07;;;;;;;;;;4991091;28;20485;-60
2023/06/25 04:50:52;;;;;;;11.25;8.20;;;;;;;;;;4992367;28;20037;-60
2023/06/25 04:53:17;;;;;;;12.18;8.52;;;;;;;;;;4991704;28;20031;-62
2023/06/25 04:55:43;;;;;;;12.30;8.77;;;;;;;;;;4995233;28;20026;-59
2023/06/25 04:58:08;;;;;;;12.25;8.55;;;;;;;;;;4995916;28;20494;-59
2023/06/25 05:00:33;;;;;;;12.35;8.43;;;;;;;;;;4994579;28;20491;-62
2023/06/25 05:02:59;;;;;;;14.23;8.75;;;;;;;;;;4995019;28;20084;-60
2023/06/25 05:05:24;;;;;;;11.75;8.25;;;;;;;;;;4994352;28;20035;-59
2023/06/25 05:07:49;;;;;;;11.93;8.68;;;;;;;;;;4995313;28;20030;-62
2023/06/25 05:10:15;;;;;;;11.68;8.90;;;;;;;;;;4995199;28;20169;-64
2023/06/25 05:12:41;;;;;;;11.80;8.48;;;;;;;;;;4994710;28;20045;-60
2023/06/25 05:15:07;;;;;;;11.70;8.77;;;;;;;;;;4995471;28;20038;-61
2023/06/25 05:17:32;;;;;;;11.88;9.20;;;;;;;;;;4993395;28;20049;-60
2023/06/25 05:19:57;;;;;;;12.55;8.68;;;;;;;;;;4992616;28;20038;-58
2023/06/25 05:22:23;;;;;;;11.68;8.98;;;;;;;;;;4992778;28;20391;-60
2023/06/25 05:24:48;;;;;;;10.30;8.40;;;;;;;;;;4980666;28;20033;-59
2023/06/25 05:27:14;;;;;;;10.57;8.45;;;;;;;;;;5006359;28;20032;-62
2023/06/25 05:29:39;;;;;;;13.20;8.80;;;;;;;;;;5003152;28;20471;-60
2023/06/25 05:32:05;;;;;;;12.32;9.07;;;;;;;;;;4995199;28;20441;-62
2023/06/25 05:34:30;;;;;;;10.77;8.60;;;;;;;;;;4993858;28;20547;-62
2023/06/25 05:36:56;;;;;;;11.40;8.68;;;;;;;;;;4994283;28;20034;-61
2023/06/25 05:39:22;;;;;;;14.85;9.30;;;;;;;;;;4993859;28;20041;-61
2023/06/25 05:41:48;;;;;;;11.63;8.23;;;;;;;;;;4994473;28;20046;-61
2023/06/25 05:44:13;;;;;;;12.50;8.63;;;;;;;;;;5006426;28;20030;-60
2023/06/25 05:46:38;;;;;;;14.18;8.98;;;;;;;;;;5012838;28;20542;-61
2023/06/25 05:49:04;;;;;;;13.10;8.38;;;;;;;;;;5013220;28;20026;-62
2023/06/25 05:51:29;;;;;;;11.93;7.93;;;;;;;;;;5013354;28;20490;-61
2023/06/25 05:53:55;;;;;;;11.70;7.45;;;;;;;;;;5013962;28;20454;-59
2023/06/25 05:56:20;;;;;;;10.65;7.90;;;;;;;;;;5012899;28;20022;-62
2023/06/25 05:58:45;;;;;;;12.10;7.60;;;;;;;;;;5013613;28;20030;-61
2023/06/25 06:01:11;;;;;;;10.30;7.90;;;;;;;;;;5012886;28;20112;-61
2023/06/25 06:03:36;;;;;;;8.77;7.10;;;;;;;;;;5012632;28;20161;-61
2023/06/25 06:06:02;;;;;;;10.77;7.50;;;;;;;;;;5012644;28;20088;-61
2023/06/25 06:08:27;;;;;;;12.02;7.90;;;;;;;;;;5012531;28;20053;-61
2023/06/25 06:10:54;;;;;;;10.27;7.60;;;;;;;;;;5013540;28;20033;-63
2023/06/25 06:13:20;;;;;;;14.13;7.80;;;;;;;;;;5009304;28;20054;-68
2023/06/25 06:15:45;;;;;;;10.27;7.78;;;;;;;;;;4993934;28;20080;-61
2023/06/25 06:18:10;;;;;;;11.20;7.57;;;;;;;;;;5000503;28;20061;-60
2023/06/25 06:20:36;;;;;;;11.70;7.32;;;;;;;;;;4973594;28;20035;-60
2023/06/25 06:23:03;;;;;;;11.10;7.20;;;;;;;;;;5018702;28;20064;-59
2023/06/25 06:25:28;;;;;;;10.07;7.10;;;;;;;;;;4992780;28;20027;-60
2023/06/25 06:27:54;;;;;;;8.95;7.07;;;;;;;;;;4990207;28;20509;-61
2023/06/25 06:30:21;;;;;;;11.57;7.40;;;;;;;;;;5008659;28;20031;-67
2023/06/25 06:32:46;;;;;;;8.40;6.85;;;;;;;;;;4973779;28;20422;-61
2023/06/25 06:35:11;;;;;;;9.85;7.22;;;;;;;;;;4986798;28;20045;-61
2023/06/25 06:37:37;;;;;;;9.27;6.70;;;;;;;;;;5022949;28;20038;-61
2023/06/25 06:40:02;;;;;;;9.50;7.00;;;;;;;;;;4993638;28;20109;-62
2023/06/25 06:42:28;;;;;;;8.75;6.90;;;;;;;;;;4989090;28;20506;-61
2023/06/25 06:44:54;;;;;;;8.77;6.70;;;;;;;;;;4993046;28;20026;-66
2023/06/25 06:47:19;;;;;;;9.60;7.63;;;;;;;;;;4992930;28;20026;-65
2023/06/25 06:49:46;;;;;;;12.85;7.13;;;;;;;;;;4992558;28;20027;-61
2023/06/25 06:52:11;;;;;;;10.77;7.22;;;;;;;;;;4993729;28;20049;-63
2023/06/25 06:54:37;;;;;;;11.68;7.35;;;;;;;;;;4992414;28;20034;-61
2023/06/25 06:57:02;;;;;;;11.13;6.85;;;;;;;;;;4993256;28;20169;-62
2023/06/25 06:59:28;;;;;;;10.48;7.20;;;;;;;;;;4991431;28;20490;-60
2023/06/25 07:01:53;;;;;;;8.85;7.10;;;;;;;;;;4992733;28;20033;-60
2023/06/25 07:04:18;;;;;;;9.10;6.97;;;;;;;;;;4991316;28;20375;-66
2023/06/25 07:06:44;;;;;;;10.75;7.30;;;;;;;;;;4991763;28;20054;-64
2023/06/25 07:09:09;;;;;;;8.18;6.45;;;;;;;;;;4993524;28;20455;-61
2023/06/25 07:11:34;;;;;;;9.07;6.40;;;;;;;;;;4992118;28;20034;-60
2023/06/25 07:14:00;;;;;;;8.48;6.47;;;;;;;;;;4992178;28;20034;-61
2023/06/25 07:16:26;;;;;;;10.55;6.80;;;;;;;;;;4991448;28;20447;-61
2023/06/25 07:18:51;;;;;;;8.00;6.35;;;;;;;;;;4992196;28;20493;-64
2023/06/25 07:21:16;;;;;;;10.35;6.78;;;;;;;;;;4992960;28;20030;-61
2023/06/25 07:23:42;;;;;;;8.27;6.82;;;;;;;;;;4991682;28;20680;-61
2023/06/25 07:26:08;;;;;;;8.93;6.53;;;;;;;;;;4992864;28;20036;-60
2023/06/25 07:28:33;;;;;;;12.25;6.43;;;;;;;;;;4991922;28;20062;-61
2023/06/25 07:30:59;;;;;;;9.23;6.80;;;;;;;;;;4993022;28;20073;-60
2023/06/25 07:33:24;;;;;;;7.90;6.00;;;;;;;;;;4992082;28;20351;-65
2023/06/25 07:35:50;;;;;;;9.18;6.28;;;;;;;;;;4992135;28;20109;-65
2023/06/25 07:38:15;;;;;;;9.02;6.55;;;;;;;;;;4992578;28;20026;-59
2023/06/25 07:40:40;;;;;;;8.02;6.43;;;;;;;;;;4991486;28;20053;-63
2023/06/25 07:43:06;;;;;;;8.05;6.43;;;;;;;;;;4992262;28;20475;-60
2023/06/25 07:45:31;;;;;;;7.68;6.00;;;;;;;;;;4990559;28;20030;-61
2023/06/25 07:47:56;;;;;;;8.45;6.53;;;;;;;;;;4975365;28;20061;-61
2023/06/25 07:50:22;;;;;;;9.52;6.10;;;;;;;;;;4992190;28;20109;-66
2023/06/25 07:52:47;;;;;;;7.85;6.15;;;;;;;;;;4985641;28;20395;-61
2023/06/25 07:55:13;;;;;;;7.38;6.07;;;;;;;;;;4972722;28;20037;-59
2023/06/25 07:57:38;;;;;;;8.02;5.90;;;;;;;;;;4981398;28;20031;-63
2023/06/25 08:00:05;;;;;;;9.45;5.90;;;;;;;;;;4992658;28;20041;-63
2023/06/25 08:02:31;;;;;;;8.93;6.60;;;;;;;;;;4991251;28;20053;-62
2023/06/25 08:04:57;;;;;;;9.10;6.20;;;;;;;;;;4992517;28;20463;-61
2023/06/25 08:07:22;;;;;;;9.13;6.20;;;;;;;;;;4992028;28;20058;-61
2023/06/25 08:09:48;;;;;;;8.40;6.20;;;;;;;;;;4991450;28;20042;-61
2023/06/25 08:12:16;;;;;;;6.88;5.30;;;;;;;;;;4992178;28;20042;-64
2023/06/25 08:14:42;;;;;;;7.93;5.90;;;;;;;;;;4989759;28;20037;-60
2023/06/25 08:17:07;;;;;;;8.25;5.50;;;;;;;;;;4992112;28;20117;-59
2023/06/25 08:19:33;;;;;;;7.05;5.53;;;;;;;;;;4991287;28;20121;-60
2023/06/25 08:21:58;;;;;;;6.50;5.30;;;;;;;;;;4990849;28;20034;-59
2023/06/25 08:24:23;;;;;;;7.22;5.72;;;;;;;;;;4990705;28;20085;-60
2023/06/25 08:26:49;;;;;;;6.85;5.30;;;;;;;;;;4991127;28;20104;-59
2023/06/25 08:29:14;;;;;;;7.05;5.50;;;;;;;;;;4993454;28;20027;-60
2023/06/25 08:31:40;;;;;;;8.35;5.65;;;;;;;;;;4994733;28;20101;-59
2023/06/25 08:34:05;;;;;;;6.88;5.18;;;;;;;;;;5005950;28;20113;-59
2023/06/25 08:36:31;;;;;;;6.15;5.15;;;;;;;;;;4996509;28;20042;-60
2023/06/25 08:38:56;;;;;;;7.50;5.10;;;;;;;;;;4994978;28;20031;-59
2023/06/25 08:41:23;;;;;;;6.97;5.50;;;;;;;;;;4994860;28;20138;-59
2023/06/25 08:43:49;;;;;;;9.45;5.28;;;;;;;;;;4978805;28;20023;-59
2023/06/25 08:46:14;;;;;;;7.65;5.70;;;;;;;;;;4976176;28;20023;-59
2023/06/25 08:48:40;;;;;;;7.15;5.10;;;;;;;;;;4975129;28;20031;-59
2023/06/25 08:51:12;;;;;;;8.63;5.57;;;;;;;;;;4996672;28;20064;-59
2023/06/25 08:53:37;;;;;;;9.23;5.55;;;;;;;;;;5014240;28;20038;-60
2023/06/25 08:56:05;;;;;;;6.88;5.18;;;;;;;;;;5013978;28;20026;-60
2023/06/25 08:58:31;;;;;;;8.45;4.80;;;;;;;;;;4998609;28;20034;-65
2023/06/25 09:00:56;;;;;;;7.68;4.57;;;;;;;;;;4991648;28;20038;-65
2023/06/25 09:03:22;;;;;;;6.70;5.28;;;;;;;;;;4994662;28;20042;-66
2023/06/25 09:05:53;;;;;;;7.38;5.00;;;;;;;;;;4992393;28;20116;-65
2023/06/25 09:08:19;;;;;;;6.93;5.38;;;;;;;;;;4994958;28;20030;-65
2023/06/25 09:10:55;;;;;;;7.32;5.22;;;;;;;;;;4991869;28;20027;-65
2023/06/25 09:13:27;;;;;;;6.68;5.22;;;;;;;;;;4995126;28;20030;-66
2023/06/25 09:15:59;;;;;;;6.38;4.95;;;;;;;;;;4994245;28;20042;-65
2023/06/25 09:18:24;;;;;;;6.47;4.68;;;;;;;;;;4994747;28;20536;-66
2023/06/25 09:20:50;;;;;;;6.97;5.32;;;;;;;;;;4993036;28;20018;-65
2023/06/25 09:23:20;;;;;;;7.68;5.10;;;;;;;;;;4994588;28;20435;-65
2023/06/25 09:25:46;;;;;;;6.78;5.20;;;;;;;;;;4994123;28;20063;-65
2023/06/25 09:28:11;;;;;;;8.63;4.80;;;;;;;;;;4994354;28;20511;-65
2023/06/25 09:30:39;;;;;;;6.05;4.85;;;;;;;;;;4993095;28;20096;-65
2023/06/25 09:33:05;;;;;;;5.78;5.13;;;;;;;;;;4990638;28;20577;-65
2023/06/25 09:35:32;;;;;;;5.60;4.85;;;;;;;;;;4991106;28;20027;-66
2023/06/25 09:37:58;;;;;;;7.32;4.57;;;;;;;;;;4994067;28;20038;-66
2023/06/25 09:40:23;;;;;;;6.18;4.80;;;;;;;;;;4993895;28;20034;-65
2023/06/25 09:42:53;;;;;;;6.75;5.30;;;;;;;;;;4993674;28;20038;-65
2023/06/25 09:45:20;;;;;;;7.88;4.88;;;;;;;;;;4993527;28;20518;-65
2023/06/25 09:47:47;;;;;;;6.97;4.78;;;;;;;;;;4993191;28;20037;-65
2023/06/25 09:50:17;;;;;;;6.07;4.72;;;;;;;;;;4994413;28;20057;-66
2023/06/25 09:52:57;;;;;;;8.45;5.18;;;;;;;;;;4993295;28;20045;-66
2023/06/25 09:55:23;;;;;;;6.90;4.88;;;;;;;;;;4991787;28;20053;-65
2023/06/25 09:57:50;;;;;;;5.60;4.60;;;;;;;;;;4993066;28;20077;-65
2023/06/25 10:00:16;;;;;;;7.30;4.85;;;;;;;;;;4993142;28;20081;-65
2023/06/25 10:02:42;;;;;;;5.57;4.65;;;;;;;;;;4993342;28;20113;-65
2023/06/25 10:05:07;;;;;;;6.45;4.60;;;;;;;;;;4994230;28;20443;-66
2023/06/25 10:07:33;;;;;;;6.30;4.80;;;;;;;;;;4993507;28;20088;-65
2023/06/25 10:09:59;;;;;;;6.40;4.90;;;;;;;;;;4990133;28;20108;-65
2023/06/25 10:12:24;;;;;;;7.13;4.53;;;;;;;;;;4994101;28;20121;-66
2023/06/25 10:14:50;;;;;;;9.07;4.80;;;;;;;;;;4993332;28;20022;-65
2023/06/25 10:17:15;;;;;;;6.47;4.70;;;;;;;;;;4993738;28;20030;-66
2023/06/25 10:19:56;;;;;;;6.80;4.63;;;;;;;;;;4992447;28;20081;-65
2023/06/25 10:22:23;;;;;;;6.65;5.00;;;;;;;;;;4974800;28;20030;-65
2023/06/25 10:24:50;;;;;;;6.47;5.25;;;;;;;;;;4973591;28;20035;-65
2023/06/25 10:27:24;;;;;;;5.80;4.65;;;;;;;;;;4972813;28;20030;-65
2023/06/25 10:29:51;;;;;;;5.95;4.63;;;;;;;;;;4973582;28;20474;-66
2023/06/25 10:32:23;;;;;;;5.55;4.80;;;;;;;;;;4991728;28;20030;-66
2023/06/25 10:34:54;;;;;;;7.05;4.53;;;;;;;;;;4992323;28;20418;-67
2023/06/25 10:37:19;;;;;;;;;;;;;;;;;;4993876;28;20034;-66
2023/06/25 10:39:45;;;;;;;8.05;4.80;;;;;;;;;;4992490;28;19956;-65
2023/06/25 10:42:13;;;;;;;6.80;4.90;;;;;;;;;;4992161;28;20050;-66
2023/06/25 10:44:38;;;;;;;5.78;4.60;;;;;;;;;;4992434;28;20076;-65
2023/06/25 10:47:06;;;;;;;6.00;4.82;;;;;;;;;;4993327;28;20058;-66
2023/06/25 10:49:32;;;;;;;7.13;4.85;;;;;;;;;;4992863;28;20439;-65
2023/06/25 10:51:58;;;;;;;6.75;4.60;;;;;;;;;;4989985;28;20042;-65
2023/06/25 10:54:23;;;;;;;6.55;4.75;;;;;;;;;;4992882;28;20038;-65
2023/06/25 10:56:49;;;;;;;6.13;5.18;;;;;;;;;;4992257;28;20448;-65
2023/06/25 10:59:21;;;;;;;6.70;4.80;;;;;;;;;;4992848;28;20049;-65
2023/06/25 11:01:47;;;;;;;9.98;4.80;;;;;;;;;;4988246;28;20056;-65
2023/06/25 11:04:15;;;;;;;6.72;4.60;;;;;;;;;;4993009;28;20034;-65
2023/06/25 11:06:41;;;;;;;6.88;4.72;;;;;;;;;;4991990;28;20383;-65
2023/06/25 11:09:06;;;;;;;7.55;4.90;;;;;;;;;;4992787;28;20034;-65
2023/06/25 11:11:31;;;;;;;6.32;4.78;;;;;;;;;;4989638;28;20041;-66
2023/06/25 11:13:57;;;;;;;8.45;4.93;;;;;;;;;;5023305;28;20049;-67
2023/06/25 11:16:22;;;;;;;5.50;4.65;;;;;;;;;;4992517;28;20034;-65
2023/06/25 11:18:50;;;;;;;5.53;4.38;;;;;;;;;;4991717;28;20026;-66
2023/06/25 11:21:16;;;;;;;6.05;4.72;;;;;;;;;;4990662;28;20031;-66
2023/06/25 11:23:44;;;;;;;6.07;5.00;;;;;;;;;;4989908;28;20041;-65
2023/06/25 11:26:12;;;;;;;6.00;4.72;;;;;;;;;;4992561;28;20034;-65
2023/06/25 11:28:38;;;;;;;5.78;4.55;;;;;;;;;;4974858;28;20156;-65
2023/06/25 11:31:04;;;;;;;6.05;4.85;;;;;;;;;;4983251;28;20034;-66
2023/06/25 11:33:30;;;;;;;6.05;4.70;;;;;;;;;;4988774;28;20034;-65
2023/06/25 11:36:11;;;;;;;6.05;4.50;;;;;;;;;;4990635;28;20832;-65
2023/06/25 11:38:37;;;;;;;5.65;4.43;;;;;;;;;;4991761;28;20066;-65
2023/06/25 11:41:05;;;;;;;4.95;4.32;;;;;;;;;;4991489;28;20136;-66
2023/06/25 11:43:32;;;;;;;5.43;4.22;;;;;;;;;;4992512;28;20125;-66
2023/06/25 11:46:02;;;;;;;8.73;4.38;;;;;;;;;;4990646;28;20045;-65
2023/06/25 11:48:29;;;;;;;5.82;4.75;;;;;;;;;;4992270;28;20030;-66
2023/06/25 11:51:03;;;;;;;5.55;4.40;;;;;;;;;;4991632;28;20034;-66
2023/06/25 11:53:28;;;;;;;5.63;4.45;;;;;;;;;;4992473;28;20041;-66
2023/06/25 11:55:53;;;;;;;5.75;4.70;;;;;;;;;;5022273;28;20390;-67
2023/06/25 11:58:19;;;;;;;6.60;4.70;;;;;;;;;;4992017;28;20030;-67
2023/06/25 12:00:45;;;;;;;5.80;4.03;;;;;;;;;;4991466;28;20038;-66
2023/06/25 12:03:10;;;;;;;5.93;4.28;;;;;;;;;;4994179;28;20034;-67
2023/06/25 12:05:35;;;;;;;5.75;4.50;;;;;;;;;;4994059;28;20043;-65
2023/06/25 12:08:01;;;;;;;4.95;4.00;;;;;;;;;;4994113;28;20027;-66
2023/06/25 12:10:27;;;;;;;5.00;4.25;;;;;;;;;;4996109;28;20451;-66
2023/06/25 12:12:54;;;;;;;4.80;4.10;;;;;;;;;;4995493;28;20037;-66
2023/06/25 12:15:20;;;;;;;5.57;4.28;;;;;;;;;;4995040;28;20046;-65
2023/06/25 12:17:45;;;;;;;4.97;4.15;;;;;;;;;;4995302;28;20053;-67
2023/06/25 12:20:11;;;;;;;5.40;4.47;;;;;;;;;;4995374;28;20379;-66
2023/06/25 12:22:36;;;;;;;5.88;4.13;;;;;;;;;;4995626;28;20115;-66
2023/06/25 12:25:03;;;;;;;6.45;4.07;;;;;;;;;;4993536;28;20042;-66
2023/06/25 12:27:29;;;;;;;5.55;3.95;;;;;;;;;;4995885;28;20054;-66
2023/06/25 12:29:55;;;;;;;4.55;4.00;;;;;;;;;;5026520;28;20030;-66
2023/06/25 12:32:20;;;;;;;5.38;4.28;;;;;;;;;;4994624;28;20125;-66
2023/06/25 12:34:46;;;;;;;5.78;3.78;;;;;;;;;;5024980;28;20335;-66
2023/06/25 12:37:12;;;;;;;6.30;4.43;;;;;;;;;;4986493;28;20383;-67
2023/06/25 12:39:37;;;;;;;5.78;4.00;;;;;;;;;;4993662;28;20383;-67
2023/06/25 12:42:03;;;;;;;6.38;4.20;;;;;;;;;;4993358;28;20046;-66
2023/06/25 12:44:28;;;;;;;5.00;4.10;;;;;;;;;;4995689;28;20054;-66
2023/06/25 12:46:53;;;;;;;4.90;3.90;;;;;;;;;;4994816;28;20413;-66
2023/06/25 12:49:19;;;;;;;5.13;4.00;;;;;;;;;;4993788;28;20031;-68
2023/06/25 12:51:44;;;;;;;4.72;3.67;;;;;;;;;;4994663;28;20034;-69
2023/06/25 12:54:10;;;;;;;6.25;4.13;;;;;;;;;;4995842;28;20026;-66
2023/06/25 12:56:35;;;;;;;4.40;3.90;;;;;;;;;;4994118;28;20035;-70
2023/06/25 12:59:01;;;;;;;5.45;4.15;;;;;;;;;;4993753;28;20213;-70
2023/06/25 13:01:26;;;;;;;7.25;4.03;;;;;;;;;;4995260;28;20084;-69
2023/06/25 13:03:51;;;;;;;5.03;3.85;;;;;;;;;;4994327;28;20467;-68
2023/06/25 13:06:18;;;;;;;5.72;4.10;;;;;;;;;;4995208;28;20053;-68
2023/06/25 13:08:43;;;;;;;4.15;3.60;;;;;;;;;;4990911;28;20073;-68
2023/06/25 13:11:09;;;;;;;4.60;3.90;;;;;;;;;;4993988;28;20076;-68
2023/06/25 13:13:34;;;;;;;4.68;4.07;;;;;;;;;;4994788;28;20030;-65
2023/06/25 13:15:59;;;;;;;4.78;4.00;;;;;;;;;;4992952;28;20085;-64
2023/06/25 13:18:25;;;;;;;6.05;4.20;;;;;;;;;;4992939;28;20383;-65
2023/06/25 13:20:50;;;;;;;5.00;4.20;;;;;;;;;;4994057;28;20113;-65
2023/06/25 13:23:16;;;;;;;4.40;3.97;;;;;;;;;;4994591;28;20105;-64
2023/06/25 13:25:41;;;;;;;5.57;4.22;;;;;;;;;;4993745;28;20035;-65
2023/06/25 13:28:07;;;;;;;5.40;3.67;;;;;;;;;;4993211;28;20089;-64
2023/06/25 13:30:33;;;;;;;5.10;3.90;;;;;;;;;;4993981;28;20030;-64
2023/06/25 13:33:01;;;;;;;5.53;3.85;;;;;;;;;;4993900;28;20034;-65
2023/06/25 13:35:27;;;;;;;5.35;3.65;;;;;;;;;;4994709;28;20085;-64
2023/06/25 13:37:52;;;;;;;4.82;3.83;;;;;;;;;;4991706;28;20038;-64
2023/06/25 13:40:17;;;;;;;5.18;3.50;;;;;;;;;;4996187;28;20034;-65
2023/06/25 13:42:43;;;;;;;4.50;3.53;;;;;;;;;;4994424;28;20050;-66
2023/06/25 13:45:09;;;;;;;4.40;3.60;;;;;;;;;;4989529;28;20034;-65
2023/06/25 13:47:34;;;;;;;4.50;3.88;;;;;;;;;;4994512;28;20038;-64
2023/06/25 13:50:00;;;;;;;4.32;3.90;;;;;;;;;;4988420;28;20038;-65
2023/06/25 13:52:26;;;;;;;6.53;3.70;;;;;;;;;;4980719;28;20363;-64
2023/06/25 13:54:52;;;;;;;5.10;4.00;;;;;;;;;;4993633;28;20038;-64
2023/06/25 13:57:17;;;;;;;4.68;3.95;;;;;;;;;;4992608;28;20038;-65
2023/06/25 13:59:43;;;;;;;4.97;3.40;;;;;;;;;;4991491;28;20531;-64
2023/06/25 14:02:08;;;;;;;6.65;4.10;;;;;;;;;;4992033;28;20085;-65
2023/06/25 14:04:34;;;;;;;4.65;3.80;;;;;;;;;;4994000;28;20062;-65
2023/06/25 14:06:59;;;;;;;5.15;3.90;;;;;;;;;;4993109;28;20360;-65
2023/06/25 14:09:25;;;;;;;4.60;3.90;;;;;;;;;;4993073;28;20085;-64
2023/06/25 14:11:50;;;;;;;4.68;3.70;;;;;;;;;;4993204;28;20034;-65
2023/06/25 14:14:16;;;;;;;4.47;3.70;;;;;;;;;;4992698;28;20062;-65
2023/06/25 14:16:43;;;;;;;4.25;3.53;;;;;;;;;;4993889;28;20027;-64
2023/06/25 14:19:09;;;;;;;4.82;3.47;;;;;;;;;;4989331;28;20068;-65
2023/06/25 14:21:35;;;;;;;4.80;3.65;;;;;;;;;;4974479;28;20062;-64
2023/06/25 14:24:00;;;;;;;5.40;3.90;;;;;;;;;;4973493;28;20118;-65
2023/06/25 14:26:26;;;;;;;4.20;3.47;;;;;;;;;;5007070;28;20117;-64
2023/06/25 14:28:51;;;;;;;4.85;3.72;;;;;;;;;;4991929;28;20081;-65
2023/06/25 14:31:16;;;;;;;4.50;3.58;;;;;;;;;;4992818;28;20034;-64